Houston, Arkansas
Current Conditions -  °F | °C
As of 7:53 AM on Monday 24 Nov 2014 (Local Time) from KRUE Reporting Station
Clear Clear  
Wind Chill: 40°   Ceiling: Unl
Heat Index: 44°   Visibility: 10mi
Dew Point: 36°   Wind: 7mph
Humidity: 73%   Direction: NA
Pressure: 29.84"   Gusts: NA
Location:  35.03°N, 92.69°W
Report Text: KRUE 241353Z AUTO VRB06KT 10SM CLR 07/02 A2984 RMK AO2 SLP102 T00670022
Loading
Personal Weather Stations






























Interactive Weather Map New forecast layout! Learn more

10-Day Weather Forecast

Advertisements
Track Severe Weather on mobile